sensor_id;sensor_type;location;lat;lon;timestamp;temperature;humidity
8896;DHT22;4484;48.928;10.066;2023-01-16T00:01:26;0.50;99.90
8896;DHT22;4484;48.928;10.066;2023-01-16T00:03:54;0.50;99.90
8896;DHT22;4484;48.928;10.066;2023-01-16T00:06:21;0.40;99.90
8896;DHT22;4484;48.928;10.066;2023-01-16T00:08:48;0.40;99.90
8896;DHT22;4484;48.928;10.066;2023-01-16T00:11:15;0.40;99.90
8896;DHT22;4484;48.928;10.066;2023-01-16T00:13:42;0.30;99.90
8896;DHT22;4484;48.928;10.066;2023-01-16T00:16:09;0.30;99.90
8896;DHT22;4484;48.928;10.066;2023-01-16T00:18:36;0.30;99.90
8896;DHT22;4484;48.928;10.066;2023-01-16T00:21:03;0.30;99.90
8896;DHT22;4484;48.928;10.066;2023-01-16T00:23:30;0.30;99.90
8896;DHT22;4484;48.928;10.066;2023-01-16T00:25:57;0.30;99.90
8896;DHT22;4484;48.928;10.066;2023-01-16T00:28:24;0.30;99.90
8896;DHT22;4484;48.928;10.066;2023-01-16T00:30:51;0.30;99.90
8896;DHT22;4484;48.928;10.066;2023-01-16T00:33:17;0.30;99.90
8896;DHT22;4484;48.928;10.066;2023-01-16T00:35:46;0.30;99.90
8896;DHT22;4484;48.928;10.066;2023-01-16T00:38:13;0.30;99.90
8896;DHT22;4484;48.928;10.066;2023-01-16T00:40:40;0.30;99.90
8896;DHT22;4484;48.928;10.066;2023-01-16T00:43:07;0.20;99.90
8896;DHT22;4484;48.928;10.066;2023-01-16T00:45:34;0.20;99.90
8896;DHT22;4484;48.928;10.066;2023-01-16T00:48:01;0.20;99.90
8896;DHT22;4484;48.928;10.066;2023-01-16T00:50:27;0.20;99.90
8896;DHT22;4484;48.928;10.066;2023-01-16T00:52:54;0.20;99.90
8896;DHT22;4484;48.928;10.066;2023-01-16T00:55:21;0.20;99.90
8896;DHT22;4484;48.928;10.066;2023-01-16T00:57:48;0.20;99.90
8896;DHT22;4484;48.928;10.066;2023-01-16T01:00:16;0.20;99.90
8896;DHT22;4484;48.928;10.066;2023-01-16T01:02:44;0.30;99.90
8896;DHT22;4484;48.928;10.066;2023-01-16T01:05:11;0.40;99.90
8896;DHT22;4484;48.928;10.066;2023-01-16T01:07:38;0.40;99.90
8896;DHT22;4484;48.928;10.066;2023-01-16T01:10:05;0.60;99.90
8896;DHT22;4484;48.928;10.066;2023-01-16T01:12:32;0.60;99.90
8896;DHT22;4484;48.928;10.066;2023-01-16T01:14:59;0.70;99.90
8896;DHT22;4484;48.928;10.066;2023-01-16T01:17:25;0.80;99.90
8896;DHT22;4484;48.928;10.066;2023-01-16T01:19:52;0.90;99.90
8896;DHT22;4484;48.928;10.066;2023-01-16T01:22:19;0.90;99.90
8896;DHT22;4484;48.928;10.066;2023-01-16T01:24:49;1.00;99.90
8896;DHT22;4484;48.928;10.066;2023-01-16T01:27:16;1.10;99.90
8896;DHT22;4484;48.928;10.066;2023-01-16T01:29:43;1.10;99.90
8896;DHT22;4484;48.928;10.066;2023-01-16T01:32:10;1.20;99.90
8896;DHT22;4484;48.928;10.066;2023-01-16T01:34:37;1.20;99.90
8896;DHT22;4484;48.928;10.066;2023-01-16T01:37:06;1.20;99.90
8896;DHT22;4484;48.928;10.066;2023-01-16T01:39:33;1.20;99.90
8896;DHT22;4484;48.928;10.066;2023-01-16T01:42:00;1.20;99.90
8896;DHT22;4484;48.928;10.066;2023-01-16T01:44:50;1.20;99.90
8896;DHT22;4484;48.928;10.066;2023-01-16T01:47:24;1.20;99.90
8896;DHT22;4484;48.928;10.066;2023-01-16T01:49:53;1.30;99.90
8896;DHT22;4484;48.928;10.066;2023-01-16T01:52:22;1.30;99.90
8896;DHT22;4484;48.928;10.066;2023-01-16T01:54:54;1.30;99.90
8896;DHT22;4484;48.928;10.066;2023-01-16T01:57:26;1.20;99.90
8896;DHT22;4484;48.928;10.066;2023-01-16T02:00:03;1.30;99.90
8896;DHT22;4484;48.928;10.066;2023-01-16T02:02:40;1.20;99.90
8896;DHT22;4484;48.928;10.066;2023-01-16T02:05:09;1.10;99.90
8896;DHT22;4484;48.928;10.066;2023-01-16T02:07:37;1.10;99.90
8896;DHT22;4484;48.928;10.066;2023-01-16T02:13:12;1.00;99.90
8896;DHT22;4484;48.928;10.066;2023-01-16T02:15:39;0.90;99.90
8896;DHT22;4484;48.928;10.066;2023-01-16T02:18:25;0.80;99.90
8896;DHT22;4484;48.928;10.066;2023-01-16T02:24:25;0.70;99.90
8896;DHT22;4484;48.928;10.066;2023-01-16T02:35:49;0.60;99.90
8896;DHT22;4484;48.928;10.066;2023-01-16T02:44:40;0.40;99.90
8896;DHT22;4484;48.928;10.066;2023-01-16T02:55:35;0.30;99.90
8896;DHT22;4484;48.928;10.066;2023-01-16T02:58:05;0.30;99.90
8896;DHT22;4484;48.928;10.066;2023-01-16T03:00:34;0.30;99.90
8896;DHT22;4484;48.928;10.066;2023-01-16T03:03:01;0.30;99.90
8896;DHT22;4484;48.928;10.066;2023-01-16T03:05:37;0.20;99.90
8896;DHT22;4484;48.928;10.066;2023-01-16T03:08:25;0.20;99.90
8896;DHT22;4484;48.928;10.066;2023-01-16T03:11:15;0.10;99.90
8896;DHT22;4484;48.928;10.066;2023-01-16T03:13:58;0.10;99.90
8896;DHT22;4484;48.928;10.066;2023-01-16T03:22:30;-0.10;99.90
8896;DHT22;4484;48.928;10.066;2023-01-16T03:25:28;-0.10;99.90
8896;DHT22;4484;48.928;10.066;2023-01-16T03:28:07;-0.10;99.90
8896;DHT22;4484;48.928;10.066;2023-01-16T03:33:26;-0.10;99.90
8896;DHT22;4484;48.928;10.066;2023-01-16T03:36:08;-0.10;99.90
8896;DHT22;4484;48.928;10.066;2023-01-16T03:38:37;-0.10;99.90
8896;DHT22;4484;48.928;10.066;2023-01-16T03:41:07;-0.10;99.90
8896;DHT22;4484;48.928;10.066;2023-01-16T03:43:37;-0.10;99.90
8896;DHT22;4484;48.928;10.066;2023-01-16T03:46:16;-0.10;99.90
8896;DHT22;4484;48.928;10.066;2023-01-16T03:49:06;-0.10;99.90
8896;DHT22;4484;48.928;10.066;2023-01-16T03:51:42;-0.10;99.90
8896;DHT22;4484;48.928;10.066;2023-01-16T03:54:24;-0.10;99.90
8896;DHT22;4484;48.928;10.066;2023-01-16T03:57:06;-0.20;99.90
8896;DHT22;4484;48.928;10.066;2023-01-16T03:59:37;-0.20;99.90
8896;DHT22;4484;48.928;10.066;2023-01-16T04:02:20;-0.20;99.90
8896;DHT22;4484;48.928;10.066;2023-01-16T04:04:59;-0.30;99.90
8896;DHT22;4484;48.928;10.066;2023-01-16T04:07:33;-0.30;99.90
8896;DHT22;4484;48.928;10.066;2023-01-16T04:10:40;-0.30;99.90
8896;DHT22;4484;48.928;10.066;2023-01-16T04:13:08;-0.30;99.90
8896;DHT22;4484;48.928;10.066;2023-01-16T04:15:38;-0.20;99.90
8896;DHT22;4484;48.928;10.066;2023-01-16T04:18:06;-0.30;99.90
8896;DHT22;4484;48.928;10.066;2023-01-16T04:20:34;-0.30;99.90
8896;DHT22;4484;48.928;10.066;2023-01-16T04:23:02;-0.20;99.90
8896;DHT22;4484;48.928;10.066;2023-01-16T04:25:29;-0.30;99.90
8896;DHT22;4484;48.928;10.066;2023-01-16T04:27:56;-0.30;99.90
8896;DHT22;4484;48.928;10.066;2023-01-16T04:30:23;-0.30;99.90
8896;DHT22;4484;48.928;10.066;2023-01-16T04:32:49;-0.20;99.90
8896;DHT22;4484;48.928;10.066;2023-01-16T04:35:16;-0.20;99.90
8896;DHT22;4484;48.928;10.066;2023-01-16T04:37:43;-0.20;99.90
8896;DHT22;4484;48.928;10.066;2023-01-16T04:40:10;-0.20;99.90
8896;DHT22;4484;48.928;10.066;2023-01-16T04:42:37;-0.20;99.90
8896;DHT22;4484;48.928;10.066;2023-01-16T04:45:04;-0.20;99.90
8896;DHT22;4484;48.928;10.066;2023-01-16T04:47:31;-0.20;99.90
8896;DHT22;4484;48.928;10.066;2023-01-16T04:49:58;-0.20;99.90
8896;DHT22;4484;48.928;10.066;2023-01-16T04:52:25;-0.20;99.90
8896;DHT22;4484;48.928;10.066;2023-01-16T04:54:52;-0.20;99.90
8896;DHT22;4484;48.928;10.066;2023-01-16T04:57:19;-0.20;99.90
8896;DHT22;4484;48.928;10.066;2023-01-16T04:59:45;-0.20;99.90
8896;DHT22;4484;48.928;10.066;2023-01-16T05:02:12;-0.20;99.90
8896;DHT22;4484;48.928;10.066;2023-01-16T05:04:39;-0.30;99.90
8896;DHT22;4484;48.928;10.066;2023-01-16T05:07:06;-0.30;99.90
8896;DHT22;4484;48.928;10.066;2023-01-16T05:09:33;-0.30;99.90
8896;DHT22;4484;48.928;10.066;2023-01-16T05:12:00;-0.30;99.90
8896;DHT22;4484;48.928;10.066;2023-01-16T05:14:27;-0.40;99.90
8896;DHT22;4484;48.928;10.066;2023-01-16T05:16:54;-0.40;99.90
8896;DHT22;4484;48.928;10.066;2023-01-16T05:19:20;-0.40;99.90
8896;DHT22;4484;48.928;10.066;2023-01-16T05:21:47;-0.40;99.90
8896;DHT22;4484;48.928;10.066;2023-01-16T05:24:14;-0.40;99.90
8896;DHT22;4484;48.928;10.066;2023-01-16T05:26:41;-0.40;99.90
8896;DHT22;4484;48.928;10.066;2023-01-16T05:29:08;-0.40;99.90
8896;DHT22;4484;48.928;10.066;2023-01-16T05:31:35;-0.40;99.90
8896;DHT22;4484;48.928;10.066;2023-01-16T05:34:01;-0.50;99.90
8896;DHT22;4484;48.928;10.066;2023-01-16T05:36:28;-0.50;99.90
8896;DHT22;4484;48.928;10.066;2023-01-16T05:38:55;-0.50;99.90
8896;DHT22;4484;48.928;10.066;2023-01-16T05:41:22;-0.50;99.90
8896;DHT22;4484;48.928;10.066;2023-01-16T05:43:49;-0.50;99.90
8896;DHT22;4484;48.928;10.066;2023-01-16T05:46:15;-0.60;99.90
8896;DHT22;4484;48.928;10.066;2023-01-16T05:48:44;-0.60;99.90
8896;DHT22;4484;48.928;10.066;2023-01-16T05:51:10;-0.50;99.90
8896;DHT22;4484;48.928;10.066;2023-01-16T05:53:40;-0.60;99.90
8896;DHT22;4484;48.928;10.066;2023-01-16T05:56:09;-0.50;99.90
8896;DHT22;4484;48.928;10.066;2023-01-16T05:58:37;-0.60;99.90
8896;DHT22;4484;48.928;10.066;2023-01-16T06:01:04;-0.60;99.90
8896;DHT22;4484;48.928;10.066;2023-01-16T06:03:31;-0.60;99.90
8896;DHT22;4484;48.928;10.066;2023-01-16T06:05:58;-0.50;99.90
8896;DHT22;4484;48.928;10.066;2023-01-16T06:08:28;-0.60;99.90
8896;DHT22;4484;48.928;10.066;2023-01-16T06:10:56;-0.50;99.90
8896;DHT22;4484;48.928;10.066;2023-01-16T06:13:23;-0.60;99.90
8896;DHT22;4484;48.928;10.066;2023-01-16T06:15:50;-0.60;99.90
8896;DHT22;4484;48.928;10.066;2023-01-16T06:18:17;-0.60;99.90
8896;DHT22;4484;48.928;10.066;2023-01-16T06:20:44;-0.60;99.90
8896;DHT22;4484;48.928;10.066;2023-01-16T06:23:11;-0.60;99.90
8896;DHT22;4484;48.928;10.066;2023-01-16T06:25:38;-0.60;99.90
8896;DHT22;4484;48.928;10.066;2023-01-16T06:28:04;-0.60;99.90
8896;DHT22;4484;48.928;10.066;2023-01-16T06:30:31;-0.60;99.90
8896;DHT22;4484;48.928;10.066;2023-01-16T06:32:58;-0.60;99.90
8896;DHT22;4484;48.928;10.066;2023-01-16T06:35:25;-0.70;99.90
8896;DHT22;4484;48.928;10.066;2023-01-16T06:37:52;-0.70;99.90
8896;DHT22;4484;48.928;10.066;2023-01-16T06:40:19;-0.60;99.90
8896;DHT22;4484;48.928;10.066;2023-01-16T06:42:46;-0.70;99.90
8896;DHT22;4484;48.928;10.066;2023-01-16T06:45:13;-0.70;99.90
8896;DHT22;4484;48.928;10.066;2023-01-16T06:47:40;-0.70;99.90
8896;DHT22;4484;48.928;10.066;2023-01-16T06:50:07;-0.70;99.90
8896;DHT22;4484;48.928;10.066;2023-01-16T06:52:34;-0.60;99.90
8896;DHT22;4484;48.928;10.066;2023-01-16T06:55:01;-0.60;99.90
8896;DHT22;4484;48.928;10.066;2023-01-16T06:57:28;-0.60;99.90
8896;DHT22;4484;48.928;10.066;2023-01-16T06:59:55;-0.60;99.90
8896;DHT22;4484;48.928;10.066;2023-01-16T07:02:22;-0.60;99.90
8896;DHT22;4484;48.928;10.066;2023-01-16T07:04:49;-0.60;99.90
8896;DHT22;4484;48.928;10.066;2023-01-16T07:07:16;-0.50;99.90
8896;DHT22;4484;48.928;10.066;2023-01-16T07:09:42;-0.50;99.90
8896;DHT22;4484;48.928;10.066;2023-01-16T07:12:09;-0.50;99.90
8896;DHT22;4484;48.928;10.066;2023-01-16T07:14:36;-0.40;99.90
8896;DHT22;4484;48.928;10.066;2023-01-16T07:17:21;-0.40;99.90
8896;DHT22;4484;48.928;10.066;2023-01-16T07:20:09;-0.50;99.90
8896;DHT22;4484;48.928;10.066;2023-01-16T07:22:55;-0.50;99.90
8896;DHT22;4484;48.928;10.066;2023-01-16T07:25:31;-0.50;99.90
8896;DHT22;4484;48.928;10.066;2023-01-16T07:27:59;-0.50;99.90
8896;DHT22;4484;48.928;10.066;2023-01-16T07:30:26;-0.50;99.90
8896;DHT22;4484;48.928;10.066;2023-01-16T07:32:53;-0.40;99.90
8896;DHT22;4484;48.928;10.066;2023-01-16T07:35:20;-0.40;99.90
8896;DHT22;4484;48.928;10.066;2023-01-16T07:37:46;-0.40;99.90
8896;DHT22;4484;48.928;10.066;2023-01-16T07:40:13;-0.40;99.90
8896;DHT22;4484;48.928;10.066;2023-01-16T07:42:40;-0.30;99.90
8896;DHT22;4484;48.928;10.066;2023-01-16T07:45:07;-0.30;99.90
8896;DHT22;4484;48.928;10.066;2023-01-16T07:47:34;-0.20;99.90
8896;DHT22;4484;48.928;10.066;2023-01-16T07:50:01;-0.20;99.90
8896;DHT22;4484;48.928;10.066;2023-01-16T07:52:28;-0.10;99.90
8896;DHT22;4484;48.928;10.066;2023-01-16T07:54:55;-0.10;99.90
8896;DHT22;4484;48.928;10.066;2023-01-16T07:57:22;-0.10;99.90
8896;DHT22;4484;48.928;10.066;2023-01-16T07:59:51;-0.10;99.90
8896;DHT22;4484;48.928;10.066;2023-01-16T08:02:18;0.00;99.90
8896;DHT22;4484;48.928;10.066;2023-01-16T08:04:45;0.10;99.90
8896;DHT22;4484;48.928;10.066;2023-01-16T08:07:12;0.10;99.90
8896;DHT22;4484;48.928;10.066;2023-01-16T08:09:38;0.10;99.90
8896;DHT22;4484;48.928;10.066;2023-01-16T08:12:05;0.20;99.90
8896;DHT22;4484;48.928;10.066;2023-01-16T08:14:32;0.20;99.90
8896;DHT22;4484;48.928;10.066;2023-01-16T08:16:59;0.30;99.90
8896;DHT22;4484;48.928;10.066;2023-01-16T08:19:26;0.30;99.90
8896;DHT22;4484;48.928;10.066;2023-01-16T08:21:53;0.30;99.90
8896;DHT22;4484;48.928;10.066;2023-01-16T08:24:19;0.40;99.90
8896;DHT22;4484;48.928;10.066;2023-01-16T08:26:46;0.40;99.90
8896;DHT22;4484;48.928;10.066;2023-01-16T08:29:13;0.50;99.90
8896;DHT22;4484;48.928;10.066;2023-01-16T08:31:40;0.50;99.90
8896;DHT22;4484;48.928;10.066;2023-01-16T08:34:07;0.60;99.90
8896;DHT22;4484;48.928;10.066;2023-01-16T08:36:34;0.70;99.90
8896;DHT22;4484;48.928;10.066;2023-01-16T08:39:01;0.70;99.90
8896;DHT22;4484;48.928;10.066;2023-01-16T08:41:28;0.80;99.90
8896;DHT22;4484;48.928;10.066;2023-01-16T08:44:15;0.90;99.90
8896;DHT22;4484;48.928;10.066;2023-01-16T08:47:11;1.10;99.90
8896;DHT22;4484;48.928;10.066;2023-01-16T08:49:57;1.20;99.90
8896;DHT22;4484;48.928;10.066;2023-01-16T08:52:43;1.30;99.90
8896;DHT22;4484;48.928;10.066;2023-01-16T08:55:10;1.40;99.90
8896;DHT22;4484;48.928;10.066;2023-01-16T08:57:37;1.50;99.90
8896;DHT22;4484;48.928;10.066;2023-01-16T09:00:06;1.60;99.90
8896;DHT22;4484;48.928;10.066;2023-01-16T09:02:33;1.70;99.90
8896;DHT22;4484;48.928;10.066;2023-01-16T09:05:03;1.80;99.90
8896;DHT22;4484;48.928;10.066;2023-01-16T09:07:29;1.80;99.90
8896;DHT22;4484;48.928;10.066;2023-01-16T09:09:57;1.90;99.90
8896;DHT22;4484;48.928;10.066;2023-01-16T09:12:23;2.00;99.90
8896;DHT22;4484;48.928;10.066;2023-01-16T09:15:09;2.10;99.90
8896;DHT22;4484;48.928;10.066;2023-01-16T09:17:36;2.20;99.90
8896;DHT22;4484;48.928;10.066;2023-01-16T09:20:03;2.20;99.90
8896;DHT22;4484;48.928;10.066;2023-01-16T09:22:31;2.30;99.90
8896;DHT22;4484;48.928;10.066;2023-01-16T09:24:59;2.40;99.90
8896;DHT22;4484;48.928;10.066;2023-01-16T09:27:26;2.50;99.90
8896;DHT22;4484;48.928;10.066;2023-01-16T09:29:53;2.60;99.90
8896;DHT22;4484;48.928;10.066;2023-01-16T09:32:20;2.70;99.90
8896;DHT22;4484;48.928;10.066;2023-01-16T09:34:47;2.70;99.90
8896;DHT22;4484;48.928;10.066;2023-01-16T09:37:14;2.70;99.90
8896;DHT22;4484;48.928;10.066;2023-01-16T09:39:41;2.70;99.90
8896;DHT22;4484;48.928;10.066;2023-01-16T09:45:20;2.80;99.90
8896;DHT22;4484;48.928;10.066;2023-01-16T09:47:50;2.80;99.90
8896;DHT22;4484;48.928;10.066;2023-01-16T09:50:30;2.90;99.90
8896;DHT22;4484;48.928;10.066;2023-01-16T09:53:00;2.90;99.90
8896;DHT22;4484;48.928;10.066;2023-01-16T09:55:48;3.00;99.90
8896;DHT22;4484;48.928;10.066;2023-01-16T09:58:39;3.10;99.90
8896;DHT22;4484;48.928;10.066;2023-01-16T10:01:16;3.10;99.90
8896;DHT22;4484;48.928;10.066;2023-01-16T10:03:45;3.10;99.90
8896;DHT22;4484;48.928;10.066;2023-01-16T10:11:38;3.30;99.90
8896;DHT22;4484;48.928;10.066;2023-01-16T10:14:19;3.30;99.90
8896;DHT22;4484;48.928;10.066;2023-01-16T10:22:07;3.30;99.90
8896;DHT22;4484;48.928;10.066;2023-01-16T10:27:28;3.30;99.90
8896;DHT22;4484;48.928;10.066;2023-01-16T10:30:03;3.30;99.90
8896;DHT22;4484;48.928;10.066;2023-01-16T10:32:55;3.30;99.90
8896;DHT22;4484;48.928;10.066;2023-01-16T10:35:29;3.30;99.90
8896;DHT22;4484;48.928;10.066;2023-01-16T10:38:13;3.20;99.90
8896;DHT22;4484;48.928;10.066;2023-01-16T10:40:43;3.20;99.90
8896;DHT22;4484;48.928;10.066;2023-01-16T10:43:19;3.30;99.90
8896;DHT22;4484;48.928;10.066;2023-01-16T10:46:15;3.30;99.90
8896;DHT22;4484;48.928;10.066;2023-01-16T10:49:17;3.30;99.90
8896;DHT22;4484;48.928;10.066;2023-01-16T10:51:56;3.40;99.90
8896;DHT22;4484;48.928;10.066;2023-01-16T10:54:24;3.40;99.90
8896;DHT22;4484;48.928;10.066;2023-01-16T10:56:51;3.50;99.90
8896;DHT22;4484;48.928;10.066;2023-01-16T10:59:18;3.50;99.90
8896;DHT22;4484;48.928;10.066;2023-01-16T11:01:47;3.60;99.90
8896;DHT22;4484;48.928;10.066;2023-01-16T11:04:18;3.60;99.90
8896;DHT22;4484;48.928;10.066;2023-01-16T11:06:46;3.60;99.90
8896;DHT22;4484;48.928;10.066;2023-01-16T11:11:41;3.60;99.90
8896;DHT22;4484;48.928;10.066;2023-01-16T11:14:43;3.60;99.90
8896;DHT22;4484;48.928;10.066;2023-01-16T11:17:35;3.60;99.90
8896;DHT22;4484;48.928;10.066;2023-01-16T11:20:34;3.60;99.90
8896;DHT22;4484;48.928;10.066;2023-01-16T11:25:39;3.60;99.90
8896;DHT22;4484;48.928;10.066;2023-01-16T11:28:08;3.60;99.90
8896;DHT22;4484;48.928;10.066;2023-01-16T11:30:42;3.50;99.90
8896;DHT22;4484;48.928;10.066;2023-01-16T11:33:20;3.50;99.90
8896;DHT22;4484;48.928;10.066;2023-01-16T11:35:54;3.40;99.90
8896;DHT22;4484;48.928;10.066;2023-01-16T11:38:26;3.40;99.90
8896;DHT22;4484;48.928;10.066;2023-01-16T11:40:56;3.40;99.90
8896;DHT22;4484;48.928;10.066;2023-01-16T11:43:26;3.30;99.90
8896;DHT22;4484;48.928;10.066;2023-01-16T11:48:58;3.20;99.90
8896;DHT22;4484;48.928;10.066;2023-01-16T11:51:29;3.20;99.90
8896;DHT22;4484;48.928;10.066;2023-01-16T11:53:58;3.20;99.90
8896;DHT22;4484;48.928;10.066;2023-01-16T11:56:48;3.20;99.90
8896;DHT22;4484;48.928;10.066;2023-01-16T11:59:39;3.20;99.90
8896;DHT22;4484;48.928;10.066;2023-01-16T12:08:20;3.10;99.90
8896;DHT22;4484;48.928;10.066;2023-01-16T12:22:56;3.20;99.90
8896;DHT22;4484;48.928;10.066;2023-01-16T12:25:47;3.20;99.90
8896;DHT22;4484;48.928;10.066;2023-01-16T12:40:03;3.10;99.90
8896;DHT22;4484;48.928;10.066;2023-01-16T12:45:47;3.20;99.90
8896;DHT22;4484;48.928;10.066;2023-01-16T12:54:35;3.30;99.90
8896;DHT22;4484;48.928;10.066;2023-01-16T12:59:41;3.40;99.90
8896;DHT22;4484;48.928;10.066;2023-01-16T13:04:41;3.50;99.90
8896;DHT22;4484;48.928;10.066;2023-01-16T13:07:15;3.50;99.90
8896;DHT22;4484;48.928;10.066;2023-01-16T13:10:21;3.50;99.90
8896;DHT22;4484;48.928;10.066;2023-01-16T13:13:06;3.60;99.90
8896;DHT22;4484;48.928;10.066;2023-01-16T13:16:08;3.60;99.90
8896;DHT22;4484;48.928;10.066;2023-01-16T13:18:39;3.60;99.90
8896;DHT22;4484;48.928;10.066;2023-01-16T13:21:13;3.70;99.90
8896;DHT22;4484;48.928;10.066;2023-01-16T13:23:48;3.70;99.90
8896;DHT22;4484;48.928;10.066;2023-01-16T13:26:18;3.80;99.90
8896;DHT22;4484;48.928;10.066;2023-01-16T13:29:13;3.90;99.90
8896;DHT22;4484;48.928;10.066;2023-01-16T13:31:45;3.90;99.90
8896;DHT22;4484;48.928;10.066;2023-01-16T13:34:30;4.00;99.90
8896;DHT22;4484;48.928;10.066;2023-01-16T13:37:28;4.00;99.90
8896;DHT22;4484;48.928;10.066;2023-01-16T13:43:05;4.00;99.90
8896;DHT22;4484;48.928;10.066;2023-01-16T13:45:53;4.00;99.90
8896;DHT22;4484;48.928;10.066;2023-01-16T13:48:26;4.10;99.90
8896;DHT22;4484;48.928;10.066;2023-01-16T13:51:11;4.10;99.90
8896;DHT22;4484;48.928;10.066;2023-01-16T13:53:39;4.20;99.90
8896;DHT22;4484;48.928;10.066;2023-01-16T13:56:13;4.20;99.90
8896;DHT22;4484;48.928;10.066;2023-01-16T13:58:43;4.20;99.90
8896;DHT22;4484;48.928;10.066;2023-01-16T14:01:32;4.20;99.90
8896;DHT22;4484;48.928;10.066;2023-01-16T14:06:46;4.20;99.90
8896;DHT22;4484;48.928;10.066;2023-01-16T14:14:49;4.20;99.90
8896;DHT22;4484;48.928;10.066;2023-01-16T14:18:01;4.20;99.90
8896;DHT22;4484;48.928;10.066;2023-01-16T14:21:00;4.30;99.90
8896;DHT22;4484;48.928;10.066;2023-01-16T14:23:23;4.30;99.90
8896;DHT22;4484;48.928;10.066;2023-01-16T14:26:12;4.30;99.90
8896;DHT22;4484;48.928;10.066;2023-01-16T14:28:46;4.30;99.90
8896;DHT22;4484;48.928;10.066;2023-01-16T14:31:26;4.30;99.90
8896;DHT22;4484;48.928;10.066;2023-01-16T14:33:55;4.40;99.90
8896;DHT22;4484;48.928;10.066;2023-01-16T14:36:25;4.40;99.90
8896;DHT22;4484;48.928;10.066;2023-01-16T14:38:53;4.40;99.90
8896;DHT22;4484;48.928;10.066;2023-01-16T14:41:29;4.40;99.90
8896;DHT22;4484;48.928;10.066;2023-01-16T14:44:21;4.40;99.90
8896;DHT22;4484;48.928;10.066;2023-01-16T14:50:15;4.40;99.90
8896;DHT22;4484;48.928;10.066;2023-01-16T14:53:16;4.40;99.90
8896;DHT22;4484;48.928;10.066;2023-01-16T14:56:24;4.40;99.90
8896;DHT22;4484;48.928;10.066;2023-01-16T15:01:31;4.50;99.90
8896;DHT22;4484;48.928;10.066;2023-01-16T15:04:21;4.60;99.90
8896;DHT22;4484;48.928;10.066;2023-01-16T15:06:54;4.60;99.90
8896;DHT22;4484;48.928;10.066;2023-01-16T15:09:21;4.60;99.90
8896;DHT22;4484;48.928;10.066;2023-01-16T15:11:55;4.70;99.90
8896;DHT22;4484;48.928;10.066;2023-01-16T15:14:23;4.70;99.90
8896;DHT22;4484;48.928;10.066;2023-01-16T15:22:58;4.60;99.90
8896;DHT22;4484;48.928;10.066;2023-01-16T15:25:39;4.60;99.90
8896;DHT22;4484;48.928;10.066;2023-01-16T15:28:18;4.50;99.90
8896;DHT22;4484;48.928;10.066;2023-01-16T15:30:48;4.40;99.90
8896;DHT22;4484;48.928;10.066;2023-01-16T15:33:29;4.40;99.90
8896;DHT22;4484;48.928;10.066;2023-01-16T15:39:27;4.20;99.90
8896;DHT22;4484;48.928;10.066;2023-01-16T15:42:15;4.20;99.90
8896;DHT22;4484;48.928;10.066;2023-01-16T15:50:54;4.00;99.90
8896;DHT22;4484;48.928;10.066;2023-01-16T15:53:23;3.90;99.90
8896;DHT22;4484;48.928;10.066;2023-01-16T15:56:02;3.80;99.90
8896;DHT22;4484;48.928;10.066;2023-01-16T15:58:30;3.70;99.90
8896;DHT22;4484;48.928;10.066;2023-01-16T16:01:03;3.60;99.90
8896;DHT22;4484;48.928;10.066;2023-01-16T16:03:38;3.60;99.90
8896;DHT22;4484;48.928;10.066;2023-01-16T16:06:08;3.60;99.90
8896;DHT22;4484;48.928;10.066;2023-01-16T16:08:38;3.60;99.90
8896;DHT22;4484;48.928;10.066;2023-01-16T16:11:07;3.50;99.90
8896;DHT22;4484;48.928;10.066;2023-01-16T16:13:55;3.50;99.90
8896;DHT22;4484;48.928;10.066;2023-01-16T16:16:26;3.40;99.90
8896;DHT22;4484;48.928;10.066;2023-01-16T16:19:34;3.40;99.90
8896;DHT22;4484;48.928;10.066;2023-01-16T16:22:02;3.50;99.90
8896;DHT22;4484;48.928;10.066;2023-01-16T16:24:53;3.50;99.90
8896;DHT22;4484;48.928;10.066;2023-01-16T16:27:20;3.50;99.90
8896;DHT22;4484;48.928;10.066;2023-01-16T16:29:52;3.60;99.90
8896;DHT22;4484;48.928;10.066;2023-01-16T16:32:20;3.60;99.90
8896;DHT22;4484;48.928;10.066;2023-01-16T16:34:53;3.60;99.90
8896;DHT22;4484;48.928;10.066;2023-01-16T16:37:20;3.60;99.90
8896;DHT22;4484;48.928;10.066;2023-01-16T16:39:59;3.60;99.90
8896;DHT22;4484;48.928;10.066;2023-01-16T16:47:38;3.80;99.90
8896;DHT22;4484;48.928;10.066;2023-01-16T16:53:14;3.90;99.90
8896;DHT22;4484;48.928;10.066;2023-01-16T16:55:46;4.00;99.90
8896;DHT22;4484;48.928;10.066;2023-01-16T16:58:20;4.10;99.90
8896;DHT22;4484;48.928;10.066;2023-01-16T17:00:49;4.10;99.90
8896;DHT22;4484;48.928;10.066;2023-01-16T17:03:24;4.10;99.90
8896;DHT22;4484;48.928;10.066;2023-01-16T17:05:52;4.00;99.90
8896;DHT22;4484;48.928;10.066;2023-01-16T17:08:22;4.00;99.90
8896;DHT22;4484;48.928;10.066;2023-01-16T17:10:50;4.00;99.90
8896;DHT22;4484;48.928;10.066;2023-01-16T17:13:21;4.00;99.90
8896;DHT22;4484;48.928;10.066;2023-01-16T17:15:52;4.10;99.90
8896;DHT22;4484;48.928;10.066;2023-01-16T17:18:22;4.10;99.90
8896;DHT22;4484;48.928;10.066;2023-01-16T17:20:50;4.10;99.90
8896;DHT22;4484;48.928;10.066;2023-01-16T17:23:19;4.10;99.90
8896;DHT22;4484;48.928;10.066;2023-01-16T17:25:46;4.20;99.90
8896;DHT22;4484;48.928;10.066;2023-01-16T17:28:14;4.20;99.90
8896;DHT22;4484;48.928;10.066;2023-01-16T17:30:41;4.20;99.90
8896;DHT22;4484;48.928;10.066;2023-01-16T17:35:37;4.20;99.90
8896;DHT22;4484;48.928;10.066;2023-01-16T17:38:15;4.20;99.90
8896;DHT22;4484;48.928;10.066;2023-01-16T17:40:42;4.20;99.90
8896;DHT22;4484;48.928;10.066;2023-01-16T17:43:14;4.20;99.90
8896;DHT22;4484;48.928;10.066;2023-01-16T17:46:04;4.20;99.90
8896;DHT22;4484;48.928;10.066;2023-01-16T17:48:32;4.20;99.90
8896;DHT22;4484;48.928;10.066;2023-01-16T17:50:59;4.10;99.90
8896;DHT22;4484;48.928;10.066;2023-01-16T17:53:28;4.20;99.90
8896;DHT22;4484;48.928;10.066;2023-01-16T17:55:57;4.20;99.90
8896;DHT22;4484;48.928;10.066;2023-01-16T17:58:31;4.20;99.90
8896;DHT22;4484;48.928;10.066;2023-01-16T18:01:12;4.10;99.90
8896;DHT22;4484;48.928;10.066;2023-01-16T18:03:46;4.10;99.90
8896;DHT22;4484;48.928;10.066;2023-01-16T18:06:15;4.10;99.90
8896;DHT22;4484;48.928;10.066;2023-01-16T18:08:42;4.00;99.90
8896;DHT22;4484;48.928;10.066;2023-01-16T18:11:10;4.00;99.90
8896;DHT22;4484;48.928;10.066;2023-01-16T18:13:55;3.90;99.90
8896;DHT22;4484;48.928;10.066;2023-01-16T18:16:41;3.90;99.90
8896;DHT22;4484;48.928;10.066;2023-01-16T18:19:26;3.80;99.90
8896;DHT22;4484;48.928;10.066;2023-01-16T18:21:53;3.80;99.90
8896;DHT22;4484;48.928;10.066;2023-01-16T18:24:38;3.70;99.90
8896;DHT22;4484;48.928;10.066;2023-01-16T18:27:08;3.70;99.90
8896;DHT22;4484;48.928;10.066;2023-01-16T18:29:36;3.60;99.90
8896;DHT22;4484;48.928;10.066;2023-01-16T18:32:03;3.60;99.90
8896;DHT22;4484;48.928;10.066;2023-01-16T18:37:41;3.40;99.90
8896;DHT22;4484;48.928;10.066;2023-01-16T18:40:28;3.40;99.90
8896;DHT22;4484;48.928;10.066;2023-01-16T18:43:14;3.30;99.90
8896;DHT22;4484;48.928;10.066;2023-01-16T18:45:59;3.30;99.90
8896;DHT22;4484;48.928;10.066;2023-01-16T18:48:46;3.30;99.90
8896;DHT22;4484;48.928;10.066;2023-01-16T18:51:32;3.30;99.90
8896;DHT22;4484;48.928;10.066;2023-01-16T18:54:19;3.30;99.90
8896;DHT22;4484;48.928;10.066;2023-01-16T18:57:13;3.30;99.90
8896;DHT22;4484;48.928;10.066;2023-01-16T19:00:00;3.30;99.90
8896;DHT22;4484;48.928;10.066;2023-01-16T19:02:47;3.30;99.90
8896;DHT22;4484;48.928;10.066;2023-01-16T19:05:16;3.40;99.90
8896;DHT22;4484;48.928;10.066;2023-01-16T19:07:48;3.40;99.90